createdAt,value
2018-11-04T00:00:06.193Z,13.60
2018-11-04T00:02:33.365Z,13.47
2018-11-04T00:05:00.561Z,13.57
2018-11-04T00:07:27.853Z,13.20
2018-11-04T00:09:55.031Z,14.17
2018-11-04T00:12:22.221Z,13.63
2018-11-04T00:14:49.429Z,13.77
2018-11-04T00:17:16.609Z,14.00
2018-11-04T00:19:43.789Z,14.57
2018-11-04T00:22:11.081Z,13.63
2018-11-04T00:24:38.253Z,14.63
2018-11-04T00:27:05.542Z,13.87
2018-11-04T00:29:32.940Z,13.97
2018-11-04T00:32:00.079Z,13.77
2018-11-04T00:34:33.943Z,13.93
2018-11-04T00:37:01.262Z,13.53
2018-11-04T00:39:28.450Z,13.53
2018-11-04T00:41:55.617Z,14.00
2018-11-04T00:44:22.798Z,14.20
2018-11-04T00:46:49.982Z,15.20
2018-11-04T00:49:17.165Z,15.20
2018-11-04T00:51:44.330Z,13.57
2018-11-04T00:54:11.535Z,14.90
2018-11-04T00:56:38.726Z,13.80
2018-11-04T00:59:05.908Z,13.93
2018-11-04T01:01:33.132Z,14.37
2018-11-04T01:04:00.296Z,14.90
2018-11-04T01:06:27.468Z,14.27
2018-11-04T01:08:54.687Z,14.37
2018-11-04T01:11:21.843Z,14.30
2018-11-04T01:13:49.013Z,14.03
2018-11-04T01:16:16.184Z,13.57
2018-11-04T01:18:43.344Z,14.23
2018-11-04T01:21:10.571Z,14.33
2018-11-04T01:23:37.706Z,14.47
2018-11-04T01:26:05.024Z,14.03
2018-11-04T01:28:32.202Z,14.33
2018-11-04T01:30:59.448Z,14.53
2018-11-04T01:33:33.300Z,15.60
2018-11-04T01:36:00.469Z,14.50
2018-11-04T01:38:27.672Z,16.00
2018-11-04T01:40:54.857Z,14.33
2018-11-04T01:43:22.016Z,14.40
2018-11-04T01:45:49.175Z,15.00
2018-11-04T01:48:16.377Z,14.60
2018-11-04T01:50:43.535Z,15.13
2018-11-04T01:53:10.748Z,15.17
2018-11-04T01:55:37.915Z,14.83
2018-11-04T01:58:05.143Z,15.67
2018-11-04T02:00:32.307Z,14.83
2018-11-04T02:02:59.514Z,14.33
2018-11-04T02:05:26.662Z,14.57
2018-11-04T02:07:53.832Z,14.67
2018-11-04T02:10:20.992Z,14.70
2018-11-04T02:12:48.208Z,14.43
2018-11-04T02:15:15.379Z,14.60
2018-11-04T02:17:42.546Z,15.23
2018-11-04T02:20:11.747Z,14.73
2018-11-04T02:22:40.305Z,15.13
2018-11-04T02:25:08.490Z,14.23
2018-11-04T02:27:35.659Z,14.77
2018-11-04T02:30:02.864Z,15.13
2018-11-04T02:32:30.060Z,15.17
2018-11-04T02:34:57.227Z,13.73
2018-11-04T02:37:24.379Z,14.80
2018-11-04T02:39:51.634Z,14.87
2018-11-04T02:42:18.790Z,14.33
2018-11-04T02:44:45.980Z,15.10
2018-11-04T02:47:13.169Z,15.20
2018-11-04T02:49:40.344Z,15.23
2018-11-04T02:52:07.503Z,14.63
2018-11-04T02:54:34.703Z,15.60
2018-11-04T02:57:01.865Z,14.27
2018-11-04T02:59:29.064Z,14.87
2018-11-04T03:01:56.327Z,15.27
2018-11-04T03:04:30.195Z,14.20
2018-11-04T03:06:57.391Z,15.10
2018-11-04T03:09:24.548Z,15.20
2018-11-04T03:11:51.760Z,14.83
2018-11-04T03:14:18.927Z,14.70
2018-11-04T03:16:46.079Z,15.27
2018-11-04T03:19:13.404Z,16.03
2018-11-04T03:21:40.560Z,14.50
2018-11-04T03:24:07.723Z,15.80
2018-11-04T03:26:34.863Z,15.07
2018-11-04T03:29:02.075Z,15.77
2018-11-04T03:31:29.256Z,15.87
2018-11-04T03:33:56.438Z,15.33
2018-11-04T03:36:23.600Z,15.27
2018-11-04T03:38:50.763Z,15.03
2018-11-04T03:41:17.916Z,14.80
2018-11-04T03:43:45.080Z,15.83
2018-11-04T03:46:12.223Z,15.47
2018-11-04T03:48:40.312Z,15.87
2018-11-04T03:51:07.465Z,15.43
2018-11-04T03:53:34.647Z,15.40
2018-11-04T03:56:01.805Z,15.07
2018-11-04T03:58:28.964Z,15.37
2018-11-04T04:00:56.139Z,15.67
2018-11-04T04:03:23.296Z,15.40
2018-11-04T04:05:50.462Z,15.73
2018-11-04T04:08:17.623Z,15.30
2018-11-04T04:10:44.792Z,15.73
2018-11-04T04:15:45.941Z,14.93
2018-11-04T04:18:13.095Z,16.00
2018-11-04T04:20:40.255Z,15.20
2018-11-04T04:23:07.408Z,15.63
2018-11-04T04:25:34.588Z,15.33
2018-11-04T04:28:01.727Z,16.37
2018-11-04T04:30:28.888Z,16.30
2018-11-04T04:32:56.051Z,16.13
2018-11-04T04:35:23.236Z,16.37
2018-11-04T04:37:50.390Z,15.13
2018-11-04T04:40:17.684Z,16.27
2018-11-04T04:42:44.877Z,15.37
2018-11-04T04:45:12.029Z,17.03
2018-11-04T04:47:39.203Z,15.93
2018-11-04T04:50:06.471Z,16.40
2018-11-04T04:52:33.662Z,16.30
2018-11-04T04:55:00.951Z,17.20
2018-11-04T04:57:28.128Z,16.37
2018-11-04T04:59:55.295Z,16.73
2018-11-04T05:02:22.491Z,16.67
2018-11-04T05:04:49.702Z,15.70
2018-11-04T05:07:16.875Z,16.97
2018-11-04T05:09:44.036Z,17.27
2018-11-04T05:12:11.200Z,16.83
2018-11-04T05:14:38.375Z,17.40
2018-11-04T05:17:05.664Z,15.80
2018-11-04T05:19:32.939Z,17.37
2018-11-04T05:22:00.096Z,16.87
2018-11-04T05:24:27.252Z,17.07
2018-11-04T05:26:54.427Z,17.70
2018-11-04T05:29:21.585Z,16.53
2018-11-04T05:31:48.747Z,16.43
2018-11-04T05:34:16.068Z,16.50
2018-11-04T05:36:43.236Z,17.10
2018-11-04T05:39:10.871Z,16.73
2018-11-04T05:41:38.647Z,16.73
2018-11-04T05:44:05.808Z,15.67
2018-11-04T05:46:33.159Z,17.13
2018-11-04T05:49:00.424Z,16.60
2018-11-04T05:51:27.615Z,16.47
2018-11-04T05:53:54.767Z,16.70
2018-11-04T05:56:21.932Z,16.27
2018-11-04T05:58:49.083Z,17.27
2018-11-04T06:01:16.247Z,15.93
2018-11-04T06:03:43.419Z,17.63
2018-11-04T06:06:10.592Z,17.53
2018-11-04T06:08:37.744Z,17.43
2018-11-04T06:11:04.921Z,17.07
2018-11-04T06:13:32.071Z,16.70
2018-11-04T06:15:59.228Z,16.93
2018-11-04T06:18:26.384Z,16.17
2018-11-04T06:20:53.532Z,16.93
2018-11-04T06:23:20.683Z,16.90
2018-11-04T06:25:47.834Z,17.57
2018-11-04T06:28:15.004Z,17.97
2018-11-04T06:30:48.859Z,18.33
2018-11-04T06:33:16.119Z,18.13
2018-11-04T06:35:43.289Z,17.53
2018-11-04T06:38:10.447Z,18.03
2018-11-04T06:40:37.603Z,17.97
2018-11-04T06:43:04.820Z,17.83
2018-11-04T06:45:32.002Z,19.00
2018-11-04T06:47:59.298Z,17.67
2018-11-04T06:50:26.583Z,17.57
2018-11-04T06:52:53.812Z,18.67
2018-11-04T06:55:21.084Z,17.60
2018-11-04T06:57:48.327Z,17.80
2018-11-04T07:00:15.475Z,17.50
2018-11-04T07:02:42.649Z,18.23
2018-11-04T07:05:09.815Z,18.03
2018-11-04T07:07:37.047Z,18.77
2018-11-04T07:10:05.629Z,18.70
2018-11-04T07:12:32.807Z,18.50
2018-11-04T07:14:59.960Z,18.43
2018-11-04T07:17:27.120Z,18.60
2018-11-04T07:19:54.362Z,18.17
2018-11-04T07:22:21.647Z,19.03
2018-11-04T07:24:48.815Z,17.20
2018-11-04T07:27:15.982Z,18.77
2018-11-04T07:29:43.163Z,18.63
2018-11-04T07:32:10.359Z,18.50
2018-11-04T07:34:37.517Z,17.77
2018-11-04T07:37:04.940Z,17.87
2018-11-04T07:39:32.091Z,18.97
2018-11-04T07:41:59.251Z,18.00
2018-11-04T07:44:26.535Z,18.83
2018-11-04T07:46:53.631Z,19.27
2018-11-04T07:49:20.795Z,19.57
2018-11-04T07:51:47.951Z,18.87
2018-11-04T07:54:15.146Z,19.30
2018-11-04T07:56:42.297Z,18.93
2018-11-04T07:59:09.470Z,20.40
2018-11-04T08:01:36.628Z,18.33
2018-11-04T08:04:04.166Z,18.37
2018-11-04T08:06:31.386Z,18.23
2018-11-04T08:08:58.615Z,19.53
2018-11-04T08:11:25.732Z,19.83
2018-11-04T08:13:52.892Z,20.23
2018-11-04T08:16:20.060Z,20.20
2018-11-04T08:18:47.221Z,20.90
2018-11-04T08:21:14.422Z,20.57
2018-11-04T08:23:41.639Z,19.17
2018-11-04T08:26:08.799Z,18.60
2018-11-04T08:28:42.592Z,20.23
2018-11-04T08:31:09.784Z,20.20
2018-11-04T08:33:36.952Z,19.47
2018-11-04T08:36:04.185Z,19.03
2018-11-04T08:38:31.337Z,19.83
2018-11-04T08:40:58.495Z,19.47
2018-11-04T08:43:25.663Z,21.00
2018-11-04T08:45:52.962Z,19.97
2018-11-04T08:48:19.973Z,21.17
2018-11-04T08:50:47.130Z,20.20
2018-11-04T08:53:14.299Z,20.87
2018-11-04T08:55:41.455Z,20.07
2018-11-04T08:58:08.607Z,21.20
2018-11-04T09:00:35.767Z,21.33
2018-11-04T09:03:02.940Z,20.20
2018-11-04T09:05:30.169Z,20.40
2018-11-04T09:07:57.344Z,20.47
2018-11-04T09:10:24.499Z,20.33
2018-11-04T09:12:51.647Z,21.10
2018-11-04T09:15:18.818Z,20.60
2018-11-04T09:17:46.025Z,21.43
2018-11-04T09:20:14.491Z,21.03
2018-11-04T09:22:42.393Z,22.23
2018-11-04T09:25:10.324Z,21.00
2018-11-04T09:27:37.642Z,21.63
2018-11-04T09:30:06.265Z,20.63
2018-11-04T09:32:33.423Z,19.87
2018-11-04T09:35:00.802Z,21.13
2018-11-04T09:37:28.124Z,21.27
2018-11-04T09:39:55.296Z,20.73
2018-11-04T09:42:22.442Z,21.73
2018-11-04T09:44:49.598Z,21.90
2018-11-04T09:47:16.775Z,21.37
2018-11-04T09:49:43.949Z,19.73
2018-11-04T09:52:11.099Z,21.47
2018-11-04T09:54:38.306Z,21.53
2018-11-04T09:57:05.475Z,21.10
2018-11-04T09:59:32.848Z,21.00
2018-11-04T10:02:07.083Z,19.93
2018-11-04T10:04:34.247Z,21.97
2018-11-04T10:07:01.447Z,20.20
2018-11-04T10:09:28.600Z,19.77
2018-11-04T10:11:55.747Z,21.10
2018-11-04T10:14:22.896Z,20.93
2018-11-04T10:16:50.065Z,20.53
2018-11-04T10:19:17.663Z,21.90
2018-11-04T10:21:44.371Z,21.03
2018-11-04T10:24:11.556Z,22.77
2018-11-04T10:26:38.813Z,24.37
2018-11-04T10:29:06.356Z,23.27
2018-11-04T10:31:33.536Z,22.83
2018-11-04T10:34:00.690Z,21.10
2018-11-04T10:36:27.859Z,21.27
2018-11-04T10:38:55.003Z,21.67
2018-11-04T10:41:22.183Z,22.50
2018-11-04T10:43:49.459Z,21.17
2018-11-04T10:46:16.639Z,21.13
2018-11-04T10:48:43.807Z,22.27
2018-11-04T10:51:10.976Z,21.93
2018-11-04T10:53:38.152Z,21.10
2018-11-04T10:56:05.323Z,21.33
2018-11-04T10:58:32.491Z,20.63
2018-11-04T11:01:05.660Z,21.20
2018-11-04T11:03:33.361Z,21.60
2018-11-04T11:06:00.877Z,21.93
2018-11-04T11:08:28.051Z,19.53
2018-11-04T11:10:55.263Z,21.07
2018-11-04T11:13:22.375Z,21.93
2018-11-04T11:15:49.526Z,21.43
2018-11-04T11:18:16.710Z,19.63
2018-11-04T11:20:43.855Z,19.63
2018-11-04T11:23:11.022Z,20.03
2018-11-04T11:25:38.165Z,20.73
2018-11-04T11:28:05.358Z,20.10
2018-11-04T11:30:32.611Z,19.50
2018-11-04T11:32:59.783Z,20.47
2018-11-04T11:35:26.939Z,21.77
2018-11-04T11:37:54.161Z,21.40
2018-11-04T11:40:21.268Z,18.20
2018-11-04T11:42:48.440Z,22.57
2018-11-04T11:45:15.599Z,20.47
2018-11-04T11:47:42.751Z,19.63
2018-11-04T11:50:09.919Z,19.17
2018-11-04T11:52:37.815Z,19.30
2018-11-04T11:55:05.747Z,18.00
2018-11-04T11:57:33.714Z,18.30
2018-11-04T12:02:51.004Z,17.97
2018-11-04T12:05:18.235Z,17.10
2018-11-04T12:07:46.159Z,17.73
2018-11-04T12:10:13.555Z,17.27
2018-11-04T12:12:40.734Z,15.80
2018-11-04T12:15:08.979Z,16.87
2018-11-04T12:17:36.885Z,16.03
2018-11-04T12:20:06.527Z,16.17
2018-11-04T12:22:34.395Z,15.50
2018-11-04T12:25:02.564Z,14.50
2018-11-04T12:27:30.742Z,15.70
2018-11-04T12:29:59.134Z,15.00
2018-11-04T12:32:27.195Z,15.10
2018-11-04T12:34:54.379Z,14.17
2018-11-04T12:37:22.095Z,15.50
2018-11-04T12:39:50.275Z,21.60
2018-11-04T12:42:17.468Z,18.50
2018-11-04T12:44:44.729Z,16.13
2018-11-04T12:47:11.879Z,16.73
2018-11-04T12:49:39.039Z,16.70
2018-11-04T12:52:06.221Z,16.27
2018-11-04T12:54:33.364Z,16.10
2018-11-04T12:57:00.576Z,16.30
2018-11-04T12:59:27.756Z,14.97
2018-11-04T13:01:55.760Z,16.10
2018-11-04T13:04:22.915Z,13.13
2018-11-04T13:06:50.051Z,13.63
2018-11-04T13:09:17.221Z,14.67
2018-11-04T13:11:44.389Z,15.10
2018-11-04T13:14:11.883Z,14.10
2018-11-04T13:16:39.083Z,13.73
2018-11-04T13:19:06.301Z,13.93
2018-11-04T13:21:34.308Z,13.00
2018-11-04T13:24:01.493Z,12.77
2018-11-04T13:26:28.639Z,14.80
2018-11-04T13:28:55.943Z,12.53
2018-11-04T13:31:23.107Z,13.60
2018-11-04T13:33:50.267Z,13.67
2018-11-04T13:36:17.527Z,14.33
2018-11-04T13:38:44.700Z,13.90
2018-11-04T13:41:11.852Z,14.10
2018-11-04T13:43:39.288Z,13.87
2018-11-04T13:46:06.467Z,13.33
2018-11-04T13:48:33.622Z,13.27
2018-11-04T13:51:00.836Z,14.07
2018-11-04T13:53:28.019Z,14.23
2018-11-04T13:55:55.175Z,14.10
2018-11-04T13:58:22.382Z,14.70
2018-11-04T14:00:49.699Z,14.70
2018-11-04T14:03:16.876Z,12.50
2018-11-04T14:05:44.050Z,13.77
2018-11-04T14:08:11.194Z,13.27
2018-11-04T14:10:38.344Z,12.60
2018-11-04T14:13:05.670Z,12.73
2018-11-04T14:15:32.688Z,13.30
2018-11-04T14:17:59.839Z,15.13
2018-11-04T14:20:27.004Z,14.57
2018-11-04T14:22:54.159Z,15.00
2018-11-04T14:25:21.368Z,14.87
2018-11-04T14:27:48.569Z,17.60
2018-11-04T14:30:15.739Z,17.33
2018-11-04T14:32:43.378Z,16.10
2018-11-04T14:35:11.104Z,16.13
2018-11-04T14:37:39.320Z,15.43
2018-11-04T14:40:07.792Z,15.83
2018-11-04T14:42:34.931Z,15.30
2018-11-04T14:45:02.104Z,15.50
2018-11-04T14:47:29.287Z,14.37
2018-11-04T14:49:56.443Z,14.93
2018-11-04T14:52:23.644Z,17.57
2018-11-04T14:54:50.823Z,17.43
2018-11-04T14:57:17.972Z,17.53
2018-11-04T14:59:45.168Z,17.27
2018-11-04T15:02:12.292Z,17.80
2018-11-04T15:04:39.564Z,17.10
2018-11-04T15:07:06.979Z,17.30
2018-11-04T15:09:34.119Z,16.50
2018-11-04T15:12:01.300Z,17.40
2018-11-04T15:14:28.456Z,16.97
2018-11-04T15:16:55.621Z,16.60
2018-11-04T15:19:22.792Z,16.30
2018-11-04T15:21:49.959Z,16.50
2018-11-04T15:26:51.935Z,16.80
2018-11-04T15:29:19.080Z,16.83
2018-11-04T15:31:46.277Z,17.07
2018-11-04T15:34:13.580Z,14.43
2018-11-04T15:36:40.694Z,15.83
2018-11-04T15:39:08.931Z,16.27
2018-11-04T15:41:36.083Z,15.93
2018-11-04T15:44:03.303Z,15.73
2018-11-04T15:46:30.479Z,16.03
2018-11-04T15:48:58.716Z,15.07
2018-11-04T15:51:25.835Z,15.23
2018-11-04T15:53:53.791Z,14.80
2018-11-04T15:56:21.677Z,13.90
2018-11-04T15:58:48.931Z,14.60
2018-11-04T16:01:16.999Z,18.37
2018-11-04T16:03:44.284Z,17.10
2018-11-04T16:06:11.519Z,14.73
2018-11-04T16:08:38.764Z,15.00
2018-11-04T16:11:06.125Z,13.80
2018-11-04T16:13:33.359Z,15.00
2018-11-04T16:16:00.814Z,14.30
2018-11-04T16:18:28.592Z,15.87
2018-11-04T16:20:55.915Z,15.40
2018-11-04T16:23:23.066Z,16.30
2018-11-04T16:25:50.260Z,15.00
2018-11-04T16:28:17.424Z,15.03
2018-11-04T16:30:44.684Z,13.93
2018-11-04T16:33:11.865Z,13.53
2018-11-04T16:35:39.157Z,13.53
2018-11-04T16:38:06.311Z,12.40
2018-11-04T16:40:34.254Z,12.43
2018-11-04T16:43:02.650Z,11.87
2018-11-04T16:45:30.451Z,11.67
2018-11-04T16:47:57.611Z,11.07
2018-11-04T16:50:24.767Z,9.97
2018-11-04T16:52:51.923Z,10.57
2018-11-04T16:55:19.077Z,10.00
2018-11-04T16:57:46.239Z,10.53
2018-11-04T17:00:13.422Z,10.30
2018-11-04T17:02:40.586Z,10.30
2018-11-04T17:05:08.875Z,9.27
2018-11-04T17:07:36.012Z,9.67
2018-11-04T17:10:03.699Z,9.90
2018-11-04T17:12:30.946Z,10.17
2018-11-04T17:14:58.181Z,10.00
2018-11-04T17:19:59.336Z,11.13
2018-11-04T17:22:26.535Z,10.50
2018-11-04T17:24:53.692Z,10.47
2018-11-04T17:27:20.974Z,10.20
2018-11-04T17:29:48.138Z,9.53
2018-11-04T17:32:15.326Z,9.80
2018-11-04T17:34:43.056Z,9.03
2018-11-04T17:37:10.225Z,8.57
2018-11-04T17:39:37.501Z,9.60
2018-11-04T17:42:04.773Z,9.97
2018-11-04T17:44:31.950Z,9.07
2018-11-04T17:46:59.066Z,8.93
2018-11-04T17:49:26.220Z,8.70
2018-11-04T17:51:53.396Z,9.67
2018-11-04T17:54:20.659Z,9.47
2018-11-04T17:56:47.911Z,9.63
2018-11-04T17:59:15.083Z,9.33
2018-11-04T18:05:13.670Z,10.07
2018-11-04T18:07:41.440Z,9.60
2018-11-04T18:10:09.359Z,8.90
2018-11-04T18:12:36.522Z,9.50
2018-11-04T18:15:04.084Z,10.67
2018-11-04T18:17:31.455Z,9.53
2018-11-04T18:19:58.608Z,9.83
2018-11-04T18:22:25.846Z,10.97
2018-11-04T18:24:53.015Z,11.07
2018-11-04T18:27:20.274Z,10.27
2018-11-04T18:29:47.419Z,10.40
2018-11-04T18:32:14.680Z,9.97
2018-11-04T18:34:41.784Z,9.40
2018-11-04T18:37:08.987Z,10.40
2018-11-04T18:39:36.175Z,9.50
2018-11-04T18:42:03.415Z,9.90
2018-11-04T18:44:30.624Z,9.40
2018-11-04T18:46:57.743Z,10.10
2018-11-04T18:49:24.888Z,9.73
2018-11-04T18:51:52.091Z,10.27
2018-11-04T18:54:19.525Z,9.70
2018-11-04T18:56:46.675Z,10.10
2018-11-04T18:59:13.973Z,10.40
2018-11-04T19:01:41.191Z,9.63
2018-11-04T19:04:08.352Z,11.13
2018-11-04T19:06:35.495Z,10.30
2018-11-04T19:09:03.621Z,10.37
2018-11-04T19:11:30.848Z,11.83
2018-11-04T19:13:57.927Z,10.67
2018-11-04T19:16:26.966Z,11.40
2018-11-04T19:18:54.625Z,11.27
2018-11-04T19:21:22.116Z,11.17
2018-11-04T19:23:49.344Z,11.13
2018-11-04T19:26:16.497Z,11.27
2018-11-04T19:28:43.643Z,11.53
2018-11-04T19:31:10.861Z,12.10
2018-11-04T19:33:37.948Z,14.90
2018-11-04T19:36:05.118Z,13.73
2018-11-04T19:38:32.280Z,13.93
2018-11-04T19:40:59.431Z,12.77
2018-11-04T19:43:26.587Z,12.43
2018-11-04T19:45:53.740Z,12.67
2018-11-04T19:48:21.054Z,12.33
2018-11-04T19:50:48.205Z,13.13
2018-11-04T19:53:15.331Z,12.13
2018-11-04T19:55:44.070Z,12.30
2018-11-04T19:58:11.260Z,11.83
2018-11-04T20:00:38.435Z,12.40
2018-11-04T20:03:05.724Z,13.30
2018-11-04T20:05:32.920Z,13.93
2018-11-04T20:08:00.367Z,13.77
2018-11-04T20:10:27.636Z,12.90
2018-11-04T20:13:00.448Z,12.83
2018-11-04T20:15:27.732Z,12.77
2018-11-04T20:17:54.892Z,14.97
2018-11-04T20:20:23.713Z,13.93
2018-11-04T20:22:51.275Z,13.03
2018-11-04T20:26:24.530Z,13.57
2018-11-04T20:28:51.760Z,13.50
2018-11-04T20:32:23.690Z,13.80
2018-11-04T20:34:50.903Z,13.60
2018-11-04T20:37:18.051Z,13.30
2018-11-04T20:39:50.908Z,14.20
2018-11-04T20:42:18.055Z,14.23
2018-11-04T20:44:46.352Z,14.00
2018-11-04T20:47:14.163Z,13.13
2018-11-04T20:49:47.123Z,12.93
2018-11-04T20:52:14.539Z,13.50
2018-11-04T20:54:41.812Z,14.07
2018-11-04T20:57:14.739Z,13.53
2018-11-04T20:59:41.903Z,15.27
2018-11-04T21:02:09.117Z,14.23
2018-11-04T21:04:36.370Z,13.47
2018-11-04T21:07:03.664Z,13.63
2018-11-04T21:09:30.830Z,12.83
2018-11-04T21:11:57.999Z,12.47
2018-11-04T21:14:25.351Z,13.33
2018-11-04T21:16:52.491Z,14.03
2018-11-04T21:19:19.671Z,14.80
2018-11-04T21:21:46.878Z,13.47
2018-11-04T21:24:14.024Z,13.40
2018-11-04T21:26:41.183Z,12.93
2018-11-04T21:29:08.659Z,13.67
2018-11-04T21:32:39.112Z,13.13
2018-11-04T21:35:06.913Z,13.37
2018-11-04T21:37:34.162Z,12.33
2018-11-04T21:40:01.336Z,11.53
2018-11-04T21:42:28.671Z,11.07
2018-11-04T21:44:56.828Z,11.20
2018-11-04T21:47:23.980Z,11.73
2018-11-04T21:49:51.131Z,11.00
2018-11-04T21:52:18.284Z,11.43
2018-11-04T21:54:45.752Z,10.00
2018-11-04T21:57:12.948Z,10.50
2018-11-04T21:59:40.131Z,10.90
2018-11-04T22:02:07.284Z,10.67
2018-11-04T22:04:34.748Z,10.17
2018-11-04T22:07:01.862Z,10.43
2018-11-04T22:09:29.014Z,10.00
2018-11-04T22:11:56.200Z,10.00
2018-11-04T22:14:23.354Z,9.50
2018-11-04T22:16:50.500Z,9.97
2018-11-04T22:19:17.659Z,9.60
2018-11-04T22:21:44.804Z,9.70
2018-11-04T22:24:11.971Z,10.20
2018-11-04T22:26:39.120Z,10.23
2018-11-04T22:29:06.317Z,9.73
2018-11-04T22:31:33.659Z,9.33
2018-11-04T22:34:00.820Z,9.97
2018-11-04T22:36:28.042Z,10.97
2018-11-04T22:38:55.132Z,10.47
2018-11-04T22:41:22.294Z,11.63
2018-11-04T22:43:49.438Z,10.40
2018-11-04T22:46:16.588Z,10.07
2018-11-04T22:48:43.756Z,9.83
2018-11-04T22:51:10.910Z,9.93
2018-11-04T22:53:38.047Z,9.47
2018-11-04T22:56:05.304Z,9.40
2018-11-04T22:58:32.383Z,9.13
2018-11-04T23:01:00.791Z,9.37
2018-11-04T23:03:28.244Z,8.57
2018-11-04T23:08:29.665Z,10.00
2018-11-04T23:10:56.840Z,9.63
2018-11-04T23:13:23.988Z,10.30
2018-11-04T23:15:51.203Z,11.40
2018-11-04T23:18:18.347Z,11.47
2018-11-04T23:20:45.522Z,11.97
2018-11-04T23:23:12.691Z,11.70
2018-11-04T23:25:39.860Z,11.77
2018-11-04T23:28:07.026Z,12.73
2018-11-04T23:30:34.177Z,15.00
2018-11-04T23:33:01.339Z,13.27
2018-11-04T23:35:28.516Z,12.70
2018-11-04T23:37:55.663Z,11.43
2018-11-04T23:40:22.821Z,10.97
2018-11-04T23:42:49.974Z,10.63
2018-11-04T23:45:17.143Z,10.50
2018-11-04T23:47:44.296Z,10.00
2018-11-04T23:50:13.116Z,10.40
2018-11-04T23:52:40.454Z,11.37
2018-11-04T23:55:08.639Z,10.30
2018-11-04T23:57:35.795Z,10.80
